Deridder, LA (70634)

10:20 PM CDT on July 13, 2014 (GMT -0500)
Battery Warehouse (KLADERID7) Elev 197 ft | 30.85 °N, 93.31 °W | Change Station

Current weather conditions updated 28 seconds ago

Scattered Clouds
Scattered Clouds
73.2 °F
Feels Like 73.2 °F
N
0.0
Wind Variable Wind from SW

Tomorrow is forecast to be nearly the same temperature as today. Late night thunderstorms tomorrow night.

Today
High -- | Low -- °F
--% Chance of Precip.
Yesterday
High -- | Low -- °F
Precip. -- in
6:19 AM 8:18 PM
Waning Gibbous, 96% visible
Pressure 30.04 in
Visibility 10.0 miles
Clouds Scattered Clouds 2200 ft
Scattered Clouds 2600 ft
Dew Point 73 °F
Humidity 99%
Rainfall 1.14 in
Snow Depth Not available.
UV 0 out of 12
Pollen 2.90 out of 12
Air Quality Not available.
Flu Activity Sporadic
METAR KDRI 140315Z AUTO 00000KT 10SM SCT022 SCT026 23/22 A3004 RMK AO2 T02250215

More Conditions Fewer Conditions

Pressure 30.04 in
Visibility 10.0 miles
Clouds Scattered Clouds 2200 ft
Scattered Clouds 2600 ft
Dew Point 73 °F
Humidity 99%
Rainfall 1.14 in
Snow Depth Not available.
UV 0 out of 12
Pollen 2.90 out of 12
Air Quality Not available.
Flu Activity Sporadic
METAR KDRI 140315Z AUTO 00000KT 10SM SCT022 SCT026 23/22 A3004 RMK AO2 T02250215

More Conditions Fewer Conditions

10-Day Weather Forecast

Almanac

Astronomy

Jul. 13, 2014 Rise Set
Actual Time 6:19 AM CDT 8:18 PM CDT
Civil Twilight 5:52 AM CDT 8:45 PM CDT
Nautical Twilight 5:18 AM CDT 9:18 PM CDT
Astronomical Twilight 4:43 AM CDT 9:53 PM CDT
Moon 9:18 PM CDT (7/13) 7:41 AM CDT (7/13)
Length of Visible Light 14h 53m
Length of Day
13h 59m
Tomorrow will be 0m 53s shorter.
Waning Gibbous, 96% of the Moon is Illuminated
Today
Waning Gibbous
Jul 18
Last Quarter
Jul 26
New
Aug 3
First Quarter
Aug 10
Full

Today's Extremes

State Highs State Lows

Community

WunderPhotos

Upload Photos

1,733,523 photos uploaded!

Nearby

Snow Depth

Station Depth Elevation
No new snow has been reported.

Earthquake Activity

City Distance Mag. Time & Date
No recent earthquake activity has been reported nearby.
Minimum magnitude displayed is 2.5.

Coastal Water Temperatures

Place Temperature
No Stations Reporting

Nearby Weather Stations

Station Location Temp. Windchill Dew Point Humidity Wind Precip. Elev Updated Type
Battery Warehouse, DeRidder, LA 73.2 °F - 73 °F 99% SW  at  0.0 mph - / hr 197 ft 11:20 PM EDT Normal
RAWS VERNON LA, Fort Polk, LA 73 °F - 71 °F 94% NW  at  1 mph 0.00 in / hr 350 ft 8:59 PM CDT MADIS
Cross Point, DeRidder, LA 77.0 °F - 74 °F 90% NNE  at  2.2 mph - / hr 112 ft 10:06 PM CDT Normal
Crosby Loop, Leesville, LA 71.2 °F - 59 °F 66% NW  at  0.0 mph 0.00 in / hr 256 ft 10:20 PM CDT Rapid Fire
RAWS DOVE FIELD LA, Pitkin, LA 74 °F - 72 °F 93% East  at  1 mph 0.00 in / hr 267 ft 9:29 PM CDT MADIS
MesoWest FULTON , Longville, LA 29 °F 29 °F - - North  at  - 0.00 in / hr 83 ft 9:20 PM CDT MADIS

Show More Stations Show Fewer Stations